Time;durP1;ratioP1;P1;durP2;ratioP2;P2;SDS_P1;SDS_P2;PMS_P1;PMS_P2;Temp;Humidity;BMP_temperature;BMP_pressure;BME280_temperature;BME280_humidity;BME280_pressure;Samples;Min_cycle;Max_cycle;Signal;HPM_P1;HPM_P2
2020/12/22 00:01:20;;;;;;;27.35;16.85;;;1.50;96.80;;;;;;5053835;28;20657;-80
2020/12/22 00:03:46;;;;;;;26.35;14.77;;;1.50;97.20;;;;;;5053261;28;20017;-81
2020/12/22 00:06:12;;;;;;;29.73;16.88;;;1.50;97.10;;;;;;5054424;28;20033;-80
2020/12/22 00:08:39;;;;;;;26.17;15.57;;;1.60;97.10;;;;;;5053194;28;20411;-80
2020/12/22 00:11:05;;;;;;;25.75;15.45;;;1.60;97.30;;;;;;5052763;28;20037;-81
2020/12/22 00:13:31;;;;;;;26.17;15.18;;;1.60;96.80;;;;;;5054195;28;20036;-78
2020/12/22 00:15:57;;;;;;;23.85;14.07;;;1.60;96.70;;;;;;5052907;28;20029;-82
2020/12/22 00:18:22;;;;;;;22.15;14.60;;;1.70;96.60;;;;;;5053303;28;20017;-82
2020/12/22 00:20:49;;;;;;;21.88;13.35;;;1.60;96.10;;;;;;5053685;28;20021;-81
2020/12/22 00:23:14;;;;;;;23.95;14.40;;;1.60;95.70;;;;;;5054268;28;20025;-81
2020/12/22 00:25:45;;;;;;;26.10;14.60;;;1.60;95.70;;;;;;5054772;28;20051;-81
2020/12/22 00:28:15;;;;;;;26.27;14.45;;;1.50;96.30;;;;;;5053052;28;20060;-82
2020/12/22 00:30:42;;;;;;;26.75;14.95;;;1.40;96.30;;;;;;5053887;28;20822;-83
2020/12/22 00:33:08;;;;;;;26.50;14.98;;;1.40;96.80;;;;;;5053710;28;20499;-83
2020/12/22 00:35:34;;;;;;;25.27;15.07;;;1.40;96.80;;;;;;5054074;28;20033;-81
2020/12/22 00:38:00;;;;;;;26.23;14.20;;;1.40;96.80;;;;;;5054031;28;20033;-81
2020/12/22 00:40:27;;;;;;;25.33;14.10;;;1.40;96.80;;;;;;5052896;28;20031;-81
2020/12/22 00:42:52;;;;;;;28.25;14.80;;;1.50;96.90;;;;;;5052654;28;20029;-79
2020/12/22 00:45:19;;;;;;;27.63;14.27;;;1.40;96.80;;;;;;5054024;28;20098;-78
2020/12/22 00:47:45;;;;;;;25.05;14.10;;;1.40;96.70;;;;;;5052724;28;20029;-80
2020/12/22 00:50:11;;;;;;;25.02;14.85;;;1.40;96.60;;;;;;5053843;28;20416;-78
2020/12/22 00:52:37;;;;;;;23.88;14.20;;;1.30;97.00;;;;;;5052460;28;20132;-79
2020/12/22 00:55:03;;;;;;;25.42;13.38;;;1.40;96.50;;;;;;5053135;28;20076;-80
2020/12/22 00:57:29;;;;;;;23.42;14.15;;;1.30;95.90;;;;;;5053471;28;20419;-80
2020/12/22 00:59:54;;;;;;;24.40;13.82;;;1.30;96.50;;;;;;5053588;28;20021;-81
2020/12/22 01:02:20;;;;;;;26.73;15.40;;;1.20;97.00;;;;;;5052069;28;20090;-82
2020/12/22 01:04:47;;;;;;;26.83;14.45;;;1.20;96.90;;;;;;5052542;28;20082;-81
2020/12/22 01:07:13;;;;;;;27.02;14.20;;;1.20;97.40;;;;;;5052359;28;20032;-84
2020/12/22 01:09:39;;;;;;;29.17;15.30;;;1.20;97.00;;;;;;5053947;28;20051;-80
2020/12/22 01:12:06;;;;;;;26.90;14.88;;;1.20;96.90;;;;;;5053837;28;20037;-82
2020/12/22 01:14:31;;;;;;;28.20;16.23;;;1.20;97.20;;;;;;5056601;28;20108;-83
2020/12/22 01:16:57;;;;;;;26.30;14.98;;;1.20;97.40;;;;;;5056526;28;20060;-80
2020/12/22 01:19:23;;;;;;;23.85;14.20;;;1.20;97.30;;;;;;5057503;28;20140;-79
2020/12/22 01:21:52;;;;;;;26.52;15.00;;;1.30;97.20;;;;;;5057319;28;20086;-78
2020/12/22 01:24:18;;;;;;;26.67;15.50;;;1.30;97.00;;;;;;5055708;28;20029;-80
2020/12/22 01:26:44;;;;;;;22.98;13.27;;;1.30;97.00;;;;;;5055813;28;20060;-80
2020/12/22 01:29:10;;;;;;;25.45;14.25;;;1.30;96.50;;;;;;5056922;28;20064;-78
2020/12/22 01:31:35;;;;;;;24.13;13.98;;;1.30;96.30;;;;;;5055600;28;20140;-80
2020/12/22 01:34:01;;;;;;;24.95;14.43;;;1.30;96.40;;;;;;5055672;28;20128;-80
2020/12/22 01:36:27;;;;;;;24.73;14.15;;;1.40;96.80;;;;;;5055635;28;20424;-79
2020/12/22 01:38:53;;;;;;;22.40;14.25;;;1.30;96.30;;;;;;5056535;28;20017;-78
2020/12/22 01:41:19;;;;;;;22.83;13.43;;;1.40;96.10;;;;;;5057114;28;20375;-79
2020/12/22 01:44:04;;;;;;;22.35;14.45;;;1.30;96.20;;;;;;5056963;28;20036;-81
2020/12/22 01:46:35;;;;;;;22.07;12.67;;;1.30;96.20;;;;;;5056873;28;20032;-77
2020/12/22 01:49:04;;;;;;;21.48;13.50;;;1.20;95.40;;;;;;5056654;28;20032;-79
2020/12/22 01:51:30;;;;;;;21.13;13.00;;;1.20;95.50;;;;;;5057620;28;20040;-80
2020/12/22 01:53:56;;;;;;;22.80;13.65;;;1.20;95.90;;;;;;5056582;28;20025;-81
2020/12/22 01:56:23;;;;;;;22.77;14.07;;;1.20;96.00;;;;;;5055208;28;20120;-80
2020/12/22 01:58:49;;;;;;;23.33;14.45;;;1.10;95.90;;;;;;5055455;28;20475;-82
2020/12/22 02:01:15;;;;;;;26.02;14.07;;;1.00;96.40;;;;;;5055467;28;20116;-81
2020/12/22 02:03:41;;;;;;;25.85;14.68;;;1.00;96.70;;;;;;5056268;28;20541;-81
2020/12/22 02:06:07;;;;;;;28.10;15.57;;;1.00;96.70;;;;;;5055353;28;20033;-79
2020/12/22 02:08:32;;;;;;;24.45;13.98;;;1.00;97.20;;;;;;5056521;28;20024;-80
2020/12/22 02:10:58;;;;;;;26.20;16.20;;;1.00;97.10;;;;;;5056407;28;20025;-79
2020/12/22 02:13:24;;;;;;;24.05;14.50;;;1.10;96.90;;;;;;5055042;28;20342;-80
2020/12/22 02:15:49;;;;;;;24.25;14.85;;;1.10;96.90;;;;;;5056894;28;20491;-79
2020/12/22 02:18:15;;;;;;;23.45;13.75;;;1.20;96.60;;;;;;5055612;28;20468;-81
2020/12/22 02:20:43;;;;;;;24.45;13.80;;;1.20;96.30;;;;;;5056438;28;20100;-81
2020/12/22 02:23:11;;;;;;;23.23;13.98;;;1.20;96.40;;;;;;5054868;28;20028;-81
2020/12/22 02:25:47;;;;;;;23.83;14.48;;;1.20;96.60;;;;;;5054523;28;20032;-80
2020/12/22 02:28:16;;;;;;;19.65;12.68;;;1.10;96.50;;;;;;5056498;28;20096;-80
2020/12/22 02:30:41;;;;;;;19.35;12.15;;;1.10;96.10;;;;;;5056359;28;20040;-79
2020/12/22 02:33:07;;;;;;;19.17;12.63;;;1.20;95.60;;;;;;5055800;28;20058;-79
2020/12/22 02:35:32;;;;;;;19.05;12.55;;;1.20;95.40;;;;;;5056176;28;20055;-81
2020/12/22 02:37:58;;;;;;;21.27;13.00;;;1.20;95.80;;;;;;5054746;28;20107;-82
2020/12/22 02:40:24;;;;;;;20.55;12.80;;;1.20;95.90;;;;;;5054651;28;20025;-79
2020/12/22 02:42:50;;;;;;;19.88;13.00;;;1.20;96.30;;;;;;5054115;28;20032;-83
2020/12/22 02:45:15;;;;;;;22.08;12.65;;;1.20;96.20;;;;;;5053848;28;20035;-83
2020/12/22 02:47:41;;;;;;;19.60;12.80;;;1.20;95.90;;;;;;5054144;28;20455;-79
2020/12/22 02:50:07;;;;;;;18.05;12.70;;;1.10;96.30;;;;;;5054382;28;20116;-78
2020/12/22 02:52:32;;;;;;;22.20;12.75;;;1.10;96.20;;;;;;5053752;28;20033;-78
2020/12/22 02:54:58;;;;;;;21.00;13.55;;;1.20;96.00;;;;;;5053644;28;20048;-78
2020/12/22 02:57:24;;;;;;;21.63;13.18;;;1.10;95.90;;;;;;5053955;28;20036;-79
2020/12/22 02:59:49;;;;;;;23.05;13.93;;;1.00;96.20;;;;;;5053643;28;20040;-79
2020/12/22 03:02:15;;;;;;;22.05;13.00;;;1.10;96.60;;;;;;5055050;28;20013;-81
2020/12/22 03:04:41;;;;;;;21.13;13.73;;;1.00;96.70;;;;;;5053923;28;20025;-80
2020/12/22 03:07:06;;;;;;;25.38;14.82;;;1.00;96.40;;;;;;5054024;28;20040;-79
2020/12/22 03:09:32;;;;;;;23.30;13.23;;;1.10;96.00;;;;;;5055194;28;20031;-82
2020/12/22 03:11:57;;;;;;;21.27;13.25;;;1.10;96.00;;;;;;5053195;28;20039;-81
2020/12/22 03:14:23;;;;;;;20.52;13.32;;;1.00;96.40;;;;;;5053359;28;20025;-80
2020/12/22 03:16:49;;;;;;;24.90;14.15;;;1.10;96.20;;;;;;5053488;28;20033;-81
2020/12/22 03:19:14;;;;;;;23.27;13.98;;;1.00;96.30;;;;;;5054697;28;20039;-81
2020/12/22 03:21:40;;;;;;;24.92;13.93;;;1.00;96.40;;;;;;5053374;28;20116;-80
2020/12/22 03:24:05;;;;;;;22.58;13.73;;;1.10;96.10;;;;;;5055148;28;20047;-80
2020/12/22 03:26:31;;;;;;;25.40;14.50;;;1.10;96.60;;;;;;5054698;28;20463;-80
2020/12/22 03:28:57;;;;;;;23.90;14.40;;;1.10;96.60;;;;;;5054584;28;20066;-80
2020/12/22 03:31:22;;;;;;;21.02;13.02;;;1.10;96.40;;;;;;5054093;28;20075;-81
2020/12/22 03:33:48;;;;;;;23.65;13.55;;;1.10;96.70;;;;;;5053532;28;20025;-79
2020/12/22 03:36:14;;;;;;;24.05;13.73;;;1.10;96.70;;;;;;5052153;28;20468;-80
2020/12/22 03:38:39;;;;;;;22.83;14.00;;;1.10;96.30;;;;;;5053986;28;20135;-79
2020/12/22 03:41:05;;;;;;;20.25;12.85;;;1.10;96.20;;;;;;5053200;28;20029;-81
2020/12/22 03:43:30;;;;;;;23.42;14.02;;;1.10;96.10;;;;;;5053061;28;20028;-79
2020/12/22 03:45:57;;;;;;;23.73;13.90;;;1.10;96.00;;;;;;5053162;28;20025;-81
2020/12/22 03:48:25;;;;;;;24.10;13.85;;;1.10;96.10;;;;;;5052980;28;20437;-80
2020/12/22 03:50:51;;;;;;;28.02;15.63;;;1.10;96.10;;;;;;5053932;28;20029;-78
2020/12/22 03:53:16;;;;;;;23.70;13.90;;;1.10;96.30;;;;;;5052097;28;20021;-78
2020/12/22 03:55:42;;;;;;;24.92;14.02;;;1.10;96.30;;;;;;5052649;28;20041;-78
2020/12/22 03:58:08;;;;;;;23.88;14.48;;;1.10;96.30;;;;;;5051518;28;20102;-79
2020/12/22 04:00:33;;;;;;;23.15;13.55;;;1.00;96.40;;;;;;5051373;28;20033;-79
2020/12/22 04:02:59;;;;;;;24.83;14.27;;;1.00;96.50;;;;;;5051302;28;20050;-83
2020/12/22 04:05:24;;;;;;;26.75;15.50;;;1.00;96.40;;;;;;5052673;28;20070;-79
2020/12/22 04:07:50;;;;;;;23.40;14.40;;;1.00;96.70;;;;;;5052611;28;20025;-79
2020/12/22 04:10:16;;;;;;;24.75;14.55;;;1.00;96.70;;;;;;5052465;28;20021;-79
2020/12/22 04:12:41;;;;;;;22.60;15.00;;;1.00;96.80;;;;;;5051047;28;20381;-77
2020/12/22 04:15:07;;;;;;;22.42;13.73;;;1.10;96.70;;;;;;5051248;28;20051;-79
2020/12/22 04:17:32;;;;;;;25.27;14.80;;;1.00;96.90;;;;;;5051235;28;20476;-80
2020/12/22 04:19:58;;;;;;;25.60;14.48;;;1.10;96.90;;;;;;5051375;28;20116;-79
2020/12/22 04:22:24;;;;;;;23.15;14.52;;;1.10;96.40;;;;;;5052618;28;20358;-79
2020/12/22 04:24:49;;;;;;;24.30;13.85;;;1.10;96.10;;;;;;5052697;28;20395;-79
2020/12/22 04:27:15;;;;;;;24.90;14.10;;;1.10;96.50;;;;;;5051557;28;20491;-78
2020/12/22 04:29:41;;;;;;;26.40;14.77;;;1.10;96.70;;;;;;5052406;28;20021;-78
2020/12/22 04:32:06;;;;;;;29.92;15.50;;;1.10;97.20;;;;;;5052300;28;20040;-81
2020/12/22 04:34:32;;;;;;;27.00;15.32;;;1.00;97.00;;;;;;5051007;28;20468;-78
2020/12/22 04:36:58;;;;;;;27.38;15.27;;;1.10;97.10;;;;;;5052412;28;20480;-79
2020/12/22 04:39:23;;;;;;;28.98;15.20;;;1.00;97.20;;;;;;5052377;28;20032;-78
2020/12/22 04:41:49;;;;;;;25.65;14.75;;;1.10;96.90;;;;;;5052434;28;20036;-83
2020/12/22 04:44:16;;;;;;;29.40;15.43;;;1.10;96.80;;;;;;5050696;28;20384;-79
2020/12/22 04:46:48;;;;;;;30.15;15.32;;;1.10;97.00;;;;;;5049939;28;20047;-77
2020/12/22 04:49:18;;;;;;;31.05;15.85;;;1.10;97.00;;;;;;5054894;28;20384;-79
2020/12/22 04:51:48;;;;;;;26.83;14.88;;;1.10;97.30;;;;;;5056121;28;20087;-79
2020/12/22 04:54:15;;;;;;;27.95;16.02;;;1.30;97.10;;;;;;5055058;28;20090;-80
2020/12/22 04:56:43;;;;;;;27.05;15.25;;;1.10;97.20;;;;;;5054673;28;20060;-79
2020/12/22 04:59:09;;;;;;;31.60;16.80;;;1.10;97.20;;;;;;5055175;28;20021;-79
2020/12/22 05:01:35;;;;;;;30.88;16.25;;;1.00;97.30;;;;;;5056276;28;20036;-79
2020/12/22 05:04:00;;;;;;;34.20;17.35;;;1.00;97.70;;;;;;5056470;28;20025;-78
2020/12/22 05:06:26;;;;;;;29.30;16.02;;;1.00;98.00;;;;;;5056130;28;20096;-81
2020/12/22 05:08:52;;;;;;;34.15;17.50;;;1.00;98.00;;;;;;5054795;28;20078;-79
2020/12/22 05:11:17;;;;;;;28.77;16.13;;;1.00;97.90;;;;;;5056076;28;20534;-80
2020/12/22 05:13:46;;;;;;;31.52;16.63;;;1.00;97.80;;;;;;5054713;28;20124;-78
2020/12/22 05:16:11;;;;;;;30.25;16.35;;;1.10;97.80;;;;;;5055022;28;20028;-79
2020/12/22 05:18:37;;;;;;;28.58;16.73;;;1.10;97.70;;;;;;5054828;28;20071;-79
2020/12/22 05:21:03;;;;;;;29.88;15.25;;;1.20;97.70;;;;;;5054771;28;20102;-77
2020/12/22 05:23:30;;;;;;;33.08;16.58;;;1.10;97.50;;;;;;5054658;28;20028;-81
2020/12/22 05:25:58;;;;;;;27.67;16.15;;;1.10;97.70;;;;;;5055869;28;20025;-83
2020/12/22 05:28:27;;;;;;;30.05;16.35;;;1.10;97.50;;;;;;5055883;28;20025;-78
2020/12/22 05:30:53;;;;;;;34.80;16.67;;;1.20;97.60;;;;;;5054523;28;20018;-79
2020/12/22 05:33:18;;;;;;;29.05;16.65;;;1.10;97.60;;;;;;5055935;28;20037;-79
2020/12/22 05:35:48;;;;;;;32.63;17.23;;;1.10;97.50;;;;;;5055767;28;20103;-79
2020/12/22 05:38:15;;;;;;;31.60;17.10;;;1.10;97.90;;;;;;5054634;28;20067;-79
2020/12/22 05:40:42;;;;;;;32.33;17.02;;;1.10;97.90;;;;;;5054933;28;20469;-80
2020/12/22 05:43:09;;;;;;;28.75;16.30;;;1.10;97.80;;;;;;5053910;28;20039;-82
2020/12/22 05:45:40;;;;;;;33.05;17.95;;;1.10;98.00;;;;;;5054613;28;20025;-79
2020/12/22 05:48:12;;;;;;;34.83;18.38;;;1.20;97.80;;;;;;5054751;28;20115;-79
2020/12/22 05:50:38;;;;;;;32.92;17.20;;;1.20;97.50;;;;;;5055730;28;20418;-81
2020/12/22 05:53:09;;;;;;;34.88;21.10;;;1.10;97.70;;;;;;5054573;28;20037;-78
2020/12/22 05:55:35;;;;;;;31.35;18.55;;;1.20;97.80;;;;;;5054580;28;20052;-80
2020/12/22 05:58:12;;;;;;;31.05;18.17;;;1.20;97.60;;;;;;5054714;28;20411;-79
2020/12/22 06:00:39;;;;;;;33.80;18.25;;;1.20;97.50;;;;;;5053816;28;20056;-78
2020/12/22 06:03:08;;;;;;;37.15;18.10;;;1.10;97.60;;;;;;5054104;28;20021;-80
2020/12/22 06:05:39;;;;;;;36.05;19.20;;;1.20;97.80;;;;;;5055653;28;20629;-80
2020/12/22 06:08:06;;;;;;;38.95;20.48;;;1.10;97.80;;;;;;5054361;28;20029;-80
2020/12/22 06:10:33;;;;;;;62.63;23.83;;;1.10;97.60;;;;;;5056012;28;20067;-80
2020/12/22 06:12:59;;;;;;;42.30;21.33;;;1.70;99.90;;;;;;5057725;28;20057;-82
2020/12/22 06:15:26;;;;;;;30.75;17.73;;;1.60;99.90;;;;;;5055780;28;20025;-81
2020/12/22 06:17:52;;;;;;;30.67;17.10;;;1.50;99.50;;;;;;5053711;28;20029;-81
2020/12/22 06:20:21;;;;;;;29.48;17.10;;;1.40;97.70;;;;;;5053874;28;20491;-80
2020/12/22 06:22:48;;;;;;;33.15;19.33;;;1.40;97.30;;;;;;5054849;28;20060;-80
2020/12/22 06:25:18;;;;;;;33.03;18.83;;;1.40;97.20;;;;;;5058384;28;20155;-83
2020/12/22 06:27:43;;;;;;;34.90;18.58;;;1.30;97.40;;;;;;5055121;28;20028;-80
2020/12/22 06:30:09;;;;;;;35.78;19.63;;;1.30;97.60;;;;;;5053557;28;20182;-77
2020/12/22 06:32:34;;;;;;;29.08;17.17;;;1.30;97.70;;;;;;5053585;28;20099;-77
2020/12/22 06:35:27;;;;;;;32.92;16.90;;;1.30;97.60;;;;;;5053767;28;20116;-79
2020/12/22 06:37:54;;;;;;;29.20;17.13;;;1.30;97.70;;;;;;5054908;28;20032;-79
2020/12/22 06:40:47;;;;;;;29.73;16.50;;;1.20;98.00;;;;;;5053514;28;20029;-77
2020/12/22 06:43:41;;;;;;;31.73;17.38;;;1.20;97.60;;;;;;5053245;28;20021;-79
2020/12/22 06:46:33;;;;;;;29.63;16.98;;;1.30;97.30;;;;;;5054822;28;20021;-80
2020/12/22 06:48:59;;;;;;;31.95;17.25;;;1.30;97.80;;;;;;5052924;28;20380;-78
2020/12/22 06:51:31;;;;;;;36.38;21.25;;;1.30;96.90;;;;;;5054170;28;20036;-79
2020/12/22 06:54:04;;;;;;;34.08;19.27;;;1.30;97.50;;;;;;5054532;28;20021;-78
2020/12/22 06:56:47;;;;;;;34.58;19.92;;;1.30;97.80;;;;;;5054009;28;20110;-77
2020/12/22 06:59:39;;;;;;;30.02;17.92;;;1.40;97.90;;;;;;5053583;28;20032;-79
2020/12/22 07:02:05;;;;;;;33.17;17.50;;;1.40;96.90;;;;;;5052754;28;20027;-81
2020/12/22 07:04:40;;;;;;;29.95;18.05;;;1.30;97.10;;;;;;5054224;28;20564;-82
2020/12/22 07:07:06;;;;;;;32.50;19.05;;;1.20;97.30;;;;;;5052719;28;20076;-77
2020/12/22 07:09:33;;;;;;;33.40;19.30;;;1.20;97.80;;;;;;5052904;28;20029;-76
2020/12/22 07:12:08;;;;;;;32.53;17.63;;;1.20;97.90;;;;;;5053085;28;20107;-76
2020/12/22 07:14:38;;;;;;;33.78;17.90;;;1.20;97.90;;;;;;5053176;28;20055;-76
2020/12/22 07:17:04;;;;;;;29.30;17.75;;;1.20;98.10;;;;;;5054227;28;20029;-76
2020/12/22 07:19:32;;;;;;;37.67;22.92;;;1.30;97.80;;;;;;5053813;28;20075;-81
2020/12/22 07:22:06;;;;;;;31.20;16.90;;;1.30;97.60;;;;;;5052422;28;20033;-80
2020/12/22 07:24:33;;;;;;;28.55;17.23;;;1.30;97.50;;;;;;5054068;28;20499;-82
2020/12/22 07:27:00;;;;;;;32.47;18.17;;;1.30;97.50;;;;;;5052070;28;20406;-80
2020/12/22 07:29:26;;;;;;;27.85;16.75;;;1.30;97.50;;;;;;5052247;28;20539;-79
2020/12/22 07:31:52;;;;;;;32.78;17.83;;;1.30;97.60;;;;;;5053786;28;20045;-81
2020/12/22 07:34:19;;;;;;;30.80;18.23;;;1.40;97.40;;;;;;5052276;28;20025;-79
2020/12/22 07:36:46;;;;;;;30.90;18.10;;;1.30;97.60;;;;;;5052274;28;20017;-80
2020/12/22 07:39:16;;;;;;;35.08;19.55;;;1.30;97.70;;;;;;5052019;28;20033;-80
2020/12/22 07:41:42;;;;;;;34.03;18.13;;;1.40;98.20;;;;;;5051740;28;20017;-80
2020/12/22 07:44:16;;;;;;;33.30;18.45;;;1.40;97.70;;;;;;5052149;28;20040;-79
2020/12/22 07:46:43;;;;;;;29.80;17.30;;;1.50;97.70;;;;;;5052299;28;20021;-81
2020/12/22 07:49:11;;;;;;;35.53;19.98;;;1.50;97.40;;;;;;5052063;28;20372;-80
2020/12/22 07:51:41;;;;;;;31.88;18.23;;;1.40;97.60;;;;;;5052052;28;20032;-80
2020/12/22 07:54:08;;;;;;;32.55;18.08;;;1.40;97.80;;;;;;5053480;28;20021;-81
2020/12/22 07:56:36;;;;;;;33.30;20.35;;;1.50;97.80;;;;;;5052056;28;20059;-80
2020/12/22 07:59:06;;;;;;;80.57;22.08;;;1.50;97.80;;;;;;5052041;28;20021;-81
2020/12/22 08:01:46;;;;;;;39.45;20.80;;;2.10;99.90;;;;;;5052056;28;20115;-80
2020/12/22 08:04:23;;;;;;;25.98;16.00;;;3.20;99.90;;;;;;5052943;28;20383;-81
2020/12/22 08:06:59;;;;;;;26.60;16.13;;;2.70;97.30;;;;;;5053065;28;20380;-82
2020/12/22 08:09:34;;;;;;;27.98;16.98;;;2.40;95.00;;;;;;5051531;28;20032;-81
2020/12/22 08:12:05;;;;;;;31.38;18.00;;;2.10;95.60;;;;;;5051775;28;20561;-82
2020/12/22 08:14:33;;;;;;;26.80;16.88;;;2.00;95.80;;;;;;5051596;28;20048;-81
2020/12/22 08:17:01;;;;;;;28.00;16.60;;;1.90;96.30;;;;;;5051910;28;20552;-81
2020/12/22 08:19:34;;;;;;;28.55;15.68;;;2.00;96.50;;;;;;5051540;28;20427;-79
2020/12/22 08:22:00;;;;;;;26.45;16.33;;;1.90;96.50;;;;;;5051439;28;20033;-82
2020/12/22 08:24:28;;;;;;;30.20;17.75;;;1.80;96.40;;;;;;5052495;28;20032;-81
2020/12/22 08:26:55;;;;;;;106.35;48.47;;;1.80;96.90;;;;;;5052943;28;20036;-82
2020/12/22 08:29:21;;;;;;;63.70;30.73;;;2.20;99.90;;;;;;5051972;28;20017;-81
2020/12/22 08:31:50;;;;;;;29.98;15.80;;;3.60;99.90;;;;;;5051629;28;20526;-81
2020/12/22 08:34:17;;;;;;;21.35;14.45;;;4.50;92.10;;;;;;5051518;28;20059;-80
2020/12/22 08:36:44;;;;;;;23.40;14.52;;;4.80;92.20;;;;;;5053031;28;20112;-81
2020/12/22 08:39:25;;;;;;;24.77;15.93;;;5.30;91.40;;;;;;5052035;28;20523;-81
2020/12/22 08:41:53;;;;;;;21.40;14.80;;;5.50;88.70;;;;;;5051903;28;20049;-78
2020/12/22 08:44:22;;;;;;;25.00;15.43;;;5.80;85.50;;;;;;5052743;28;20103;-79
2020/12/22 08:46:48;;;;;;;23.75;15.90;;;5.10;85.70;;;;;;5052017;28;20032;-81
2020/12/22 08:49:17;;;;;;;20.23;14.40;;;4.70;88.00;;;;;;5053208;28;20021;-82
2020/12/22 08:51:44;;;;;;;22.33;14.27;;;4.10;90.30;;;;;;5052928;28;20041;-78
2020/12/22 08:54:10;;;;;;;22.92;14.82;;;3.50;91.70;;;;;;5052104;28;20356;-76
2020/12/22 08:56:37;;;;;;;23.90;14.93;;;3.30;92.80;;;;;;5051789;28;20052;-79
2020/12/22 08:59:08;;;;;;;24.15;15.25;;;3.10;93.30;;;;;;5053027;28;20041;-81
2020/12/22 09:01:44;;;;;;;23.33;15.40;;;3.00;93.90;;;;;;5053335;28;20087;-81
2020/12/22 09:04:11;;;;;;;37.72;22.85;;;2.80;93.90;;;;;;5054022;28;20426;-74
2020/12/22 09:06:38;;;;;;;40.38;26.08;;;2.70;94.50;;;;;;5052621;28;20029;-82
2020/12/22 09:09:06;;;;;;;23.70;16.35;;;2.70;94.70;;;;;;5053449;28;20048;-86
2020/12/22 09:11:32;;;;;;;22.15;14.70;;;2.70;93.90;;;;;;5051780;28;20033;-83
2020/12/22 09:14:04;;;;;;;36.13;19.67;;;2.70;93.80;;;;;;5053551;28;20388;-82
2020/12/22 09:16:51;;;;;;;23.48;15.18;;;3.10;99.90;;;;;;5052624;28;20036;-81
2020/12/22 09:19:22;;;;;;;20.48;14.07;;;4.20;95.40;;;;;;5050572;28;20412;-82
2020/12/22 09:21:56;;;;;;;20.90;14.25;;;4.70;91.20;;;;;;5050462;28;20040;-79
2020/12/22 09:24:22;;;;;;;22.25;15.13;;;4.70;93.00;;;;;;5051325;28;20032;-77
2020/12/22 09:26:53;;;;;;;21.02;13.80;;;5.00;90.60;;;;;;5050964;28;20020;-81
2020/12/22 09:29:19;;;;;;;26.50;17.27;;;5.30;91.50;;;;;;5051663;28;20036;-83
2020/12/22 09:31:45;;;;;;;28.17;15.73;;;5.50;88.50;;;;;;5051009;28;20025;-83
2020/12/22 09:34:11;;;;;;;22.75;15.05;;;5.50;87.10;;;;;;5052025;28;20039;-80
2020/12/22 09:36:37;;;;;;;22.08;14.20;;;5.30;88.60;;;;;;5056315;28;20061;-83
2020/12/22 09:39:03;;;;;;;20.67;14.18;;;5.30;89.50;;;;;;5056191;28;20029;-82
2020/12/22 09:41:29;;;;;;;22.08;14.75;;;5.40;88.10;;;;;;5056067;28;20365;-81
2020/12/22 09:43:54;;;;;;;23.33;14.45;;;5.20;90.00;;;;;;5054700;28;20107;-83
2020/12/22 09:46:20;;;;;;;27.83;17.23;;;5.30;90.50;;;;;;5055643;28;20051;-81
2020/12/22 09:48:46;;;;;;;24.85;17.00;;;5.00;90.10;;;;;;5055523;28;20051;-81
2020/12/22 09:51:15;;;;;;;24.80;15.93;;;5.30;89.00;;;;;;5055267;28;20477;-80
2020/12/22 09:53:41;;;;;;;23.05;15.40;;;5.20;90.50;;;;;;5056446;28;20037;-82
2020/12/22 09:56:06;;;;;;;23.40;15.93;;;5.30;89.70;;;;;;5056413;28;20064;-79
2020/12/22 09:58:32;;;;;;;23.30;15.43;;;5.20;90.00;;;;;;5055954;28;20029;-82
2020/12/22 10:00:58;;;;;;;21.40;14.80;;;5.30;89.10;;;;;;5054563;28;20472;-80
2020/12/22 10:03:24;;;;;;;23.77;15.02;;;5.00;90.50;;;;;;5055124;28;20029;-81
2020/12/22 10:05:49;;;;;;;23.58;15.85;;;5.30;93.00;;;;;;5054813;28;20020;-81
2020/12/22 10:08:15;;;;;;;19.30;13.70;;;5.40;91.90;;;;;;5055001;28;20060;-84
2020/12/22 10:10:41;;;;;;;21.70;15.18;;;5.30;90.50;;;;;;5055202;28;20035;-82
2020/12/22 10:13:06;;;;;;;22.67;15.52;;;5.20;91.50;;;;;;5059593;28;20060;-82
2020/12/22 10:15:32;;;;;;;23.00;15.77;;;5.10;91.50;;;;;;5055562;28;20083;-79
2020/12/22 10:17:58;;;;;;;22.00;15.10;;;5.00;91.10;;;;;;5056005;28;20035;-82
2020/12/22 10:20:23;;;;;;;26.95;17.17;;;4.80;89.30;;;;;;5055507;28;20029;-82
2020/12/22 10:22:49;;;;;;;23.52;16.02;;;4.80;93.00;;;;;;5055520;28;20412;-83
2020/12/22 10:25:14;;;;;;;22.55;15.48;;;5.00;91.00;;;;;;5055562;28;20013;-80
2020/12/22 10:27:40;;;;;;;24.70;16.83;;;4.60;90.70;;;;;;5054714;28;20087;-81
2020/12/22 10:30:06;;;;;;;22.63;16.38;;;4.20;91.50;;;;;;5054940;28;20376;-80
2020/12/22 10:32:32;;;;;;;23.50;15.93;;;3.90;92.90;;;;;;5054061;28;20503;-80
2020/12/22 10:34:57;;;;;;;24.95;16.48;;;3.70;93.40;;;;;;5053140;28;20028;-77
2020/12/22 10:37:23;;;;;;;22.92;15.40;;;3.60;93.70;;;;;;5054483;28;20032;-83
2020/12/22 10:39:51;;;;;;;26.30;17.60;;;3.50;93.50;;;;;;5055246;28;20025;-82
2020/12/22 10:42:20;;;;;;;22.70;15.18;;;3.60;93.80;;;;;;5055361;28;20379;-80
2020/12/22 10:44:45;;;;;;;22.90;15.85;;;3.50;93.80;;;;;;5053285;28;20025;-75
2020/12/22 10:47:11;;;;;;;21.70;15.18;;;3.50;94.10;;;;;;5053914;28;20115;-74
2020/12/22 10:49:37;;;;;;;25.88;15.82;;;3.50;93.60;;;;;;5054434;28;20412;-77
2020/12/22 10:52:03;;;;;;;23.02;15.88;;;3.40;94.00;;;;;;5053541;28;20056;-77
2020/12/22 10:54:29;;;;;;;24.88;16.10;;;3.50;93.20;;;;;;5053900;28;20060;-74
2020/12/22 10:56:55;;;;;;;24.80;16.48;;;3.50;93.40;;;;;;5054104;28;20079;-75
2020/12/22 10:59:20;;;;;;;24.73;16.65;;;3.50;94.40;;;;;;5053739;28;20032;-76
2020/12/22 11:01:51;;;;;;;24.45;16.10;;;3.60;94.10;;;;;;5053544;28;20028;-75
2020/12/22 11:04:17;;;;;;;22.83;16.00;;;3.50;94.00;;;;;;5053638;28;20032;-75
2020/12/22 11:06:50;;;;;;;24.92;16.52;;;3.50;93.90;;;;;;5052504;28;20029;-80
2020/12/22 11:09:16;;;;;;;26.65;17.40;;;3.70;93.90;;;;;;5052362;28;20029;-78
2020/12/22 11:11:46;;;;;;;26.27;17.88;;;3.50;94.70;;;;;;5052966;28;20475;-77
2020/12/22 11:14:15;;;;;;;24.13;16.60;;;3.60;94.90;;;;;;5053139;28;20024;-78
2020/12/22 11:16:41;;;;;;;24.27;16.40;;;3.60;94.70;;;;;;5052964;28;20071;-78
2020/12/22 11:19:09;;;;;;;25.85;17.17;;;3.60;94.60;;;;;;5053864;28;20021;-78
2020/12/22 11:21:35;;;;;;;23.17;16.27;;;3.70;94.50;;;;;;5053819;28;20513;-78
2020/12/22 11:24:01;;;;;;;22.02;15.52;;;3.90;94.50;;;;;;5054938;28;20029;-80
2020/12/22 11:26:27;;;;;;;27.33;18.10;;;3.80;94.00;;;;;;5055286;28;20083;-75
2020/12/22 11:28:53;;;;;;;28.00;18.95;;;3.70;94.80;;;;;;5055671;28;20097;-77
2020/12/22 11:31:19;;;;;;;36.67;19.02;;;3.70;94.20;;;;;;5054676;28;20027;-75
2020/12/22 11:33:45;;;;;;;31.40;20.17;;;3.70;94.20;;;;;;5054847;28;20622;-77
2020/12/22 11:36:14;;;;;;;29.67;19.15;;;3.70;94.10;;;;;;5053385;28;20025;-76
2020/12/22 11:38:40;;;;;;;29.35;18.35;;;3.80;94.80;;;;;;5054416;28;20044;-77
2020/12/22 11:41:06;;;;;;;28.05;18.52;;;3.80;95.20;;;;;;5053112;28;20120;-76
2020/12/22 11:43:32;;;;;;;26.92;19.55;;;3.90;94.80;;;;;;5055786;28;20025;-78
2020/12/22 11:45:58;;;;;;;26.92;18.33;;;4.00;94.90;;;;;;5055178;28;20155;-77
2020/12/22 11:48:24;;;;;;;25.48;17.08;;;4.10;93.80;;;;;;5055489;28;20076;-77
2020/12/22 11:50:54;;;;;;;24.50;16.50;;;4.20;94.20;;;;;;5053110;28;20025;-76
2020/12/22 11:53:21;;;;;;;25.65;16.15;;;4.10;94.20;;;;;;5053363;28;20043;-78
2020/12/22 11:55:47;;;;;;;26.48;18.83;;;4.10;93.80;;;;;;5051537;28;20784;-76
2020/12/22 11:58:13;;;;;;;26.48;17.27;;;4.10;94.80;;;;;;5052642;28;20040;-76
2020/12/22 12:00:39;;;;;;;25.85;17.65;;;4.10;94.60;;;;;;5054379;28;20025;-77
2020/12/22 12:03:05;;;;;;;26.67;17.73;;;4.10;94.70;;;;;;5054408;28;20021;-77
2020/12/22 12:05:30;;;;;;;24.80;17.15;;;4.20;94.90;;;;;;5052899;28;20537;-78
2020/12/22 12:07:56;;;;;;;25.02;16.55;;;4.30;94.60;;;;;;5053031;28;20798;-79
2020/12/22 12:10:22;;;;;;;24.45;17.48;;;4.40;94.60;;;;;;5052097;28;20055;-77
2020/12/22 12:12:48;;;;;;;24.35;16.67;;;4.30;93.80;;;;;;5053294;28;20040;-79
2020/12/22 12:15:13;;;;;;;26.13;17.85;;;4.10;94.30;;;;;;5053586;28;20108;-87
2020/12/22 12:17:40;;;;;;;20.33;15.45;;;4.30;95.10;;;;;;5052284;28;20047;-80
2020/12/22 12:20:06;;;;;;;21.80;16.48;;;4.30;94.70;;;;;;5051827;28;20028;-79
2020/12/22 12:22:32;;;;;;;23.55;16.38;;;4.30;94.60;;;;;;5052339;28;20017;-81
2020/12/22 12:24:59;;;;;;;25.88;18.70;;;4.40;94.40;;;;;;5052491;28;20032;-79
2020/12/22 12:27:24;;;;;;;26.55;18.50;;;4.50;94.10;;;;;;5052540;28;20028;-83
2020/12/22 12:29:50;;;;;;;23.55;15.75;;;4.50;94.60;;;;;;5058152;28;20471;-83
2020/12/22 12:32:16;;;;;;;22.08;15.95;;;4.40;94.40;;;;;;5037794;28;20040;-82
2020/12/22 12:34:41;;;;;;;22.92;15.88;;;4.40;94.70;;;;;;5059164;28;20025;-83
2020/12/22 12:37:07;;;;;;;22.58;16.73;;;4.40;94.60;;;;;;5053788;28;20032;-83